sensor_id;sensor_type;location;lat;lon;timestamp;pressure;altitude;pressure_sealevel;temperature;humidity
46638;BME280;32365;46.938;7.390;2022-11-15T07:55:41;94911.84;;;6.74;100.00
46638;BME280;32365;46.938;7.390;2022-11-15T07:58:08;94909.84;;;6.76;100.00
46638;BME280;32365;46.938;7.390;2022-11-15T08:00:35;94908.50;;;6.73;100.00
46638;BME280;32365;46.938;7.390;2022-11-15T08:03:02;94914.91;;;6.83;100.00
46638;BME280;32365;46.938;7.390;2022-11-15T08:05:29;94913.91;;;6.84;100.00
46638;BME280;32365;46.938;7.390;2022-11-15T08:07:55;94925.94;;;6.90;100.00
46638;BME280;32365;46.938;7.390;2022-11-15T08:10:22;94908.13;;;6.88;100.00
46638;BME280;32365;46.938;7.390;2022-11-15T08:12:54;94911.84;;;6.92;100.00
46638;BME280;32365;46.938;7.390;2022-11-15T08:15:22;94909.84;;;6.95;100.00
46638;BME280;32365;46.938;7.390;2022-11-15T08:17:52;94912.19;;;6.96;100.00
46638;BME280;32365;46.938;7.390;2022-11-15T08:20:19;94901.47;;;6.99;100.00
46638;BME280;32365;46.938;7.390;2022-11-15T08:22:45;94898.47;;;7.02;100.00
46638;BME280;32365;46.938;7.390;2022-11-15T08:25:11;94903.25;;;6.99;100.00
46638;BME280;32365;46.938;7.390;2022-11-15T08:27:38;94905.56;;;6.88;100.00
46638;BME280;32365;46.938;7.390;2022-11-15T08:30:06;94912.09;;;6.91;100.00
46638;BME280;32365;46.938;7.390;2022-11-15T08:32:33;94909.63;;;6.96;100.00
46638;BME280;32365;46.938;7.390;2022-11-15T08:34:59;94907.31;;;7.06;100.00
46638;BME280;32365;46.938;7.390;2022-11-15T08:37:26;94910.34;;;7.03;100.00
46638;BME280;32365;46.938;7.390;2022-11-15T08:39:52;94906.94;;;6.91;100.00
46638;BME280;32365;46.938;7.390;2022-11-15T08:42:18;94906.34;;;6.89;100.00
46638;BME280;32365;46.938;7.390;2022-11-15T08:44:44;94895.53;;;6.99;100.00
46638;BME280;32365;46.938;7.390;2022-11-15T08:47:12;94891.34;;;6.86;100.00
46638;BME280;32365;46.938;7.390;2022-11-15T08:49:39;94884.03;;;7.01;100.00
46638;BME280;32365;46.938;7.390;2022-11-15T08:52:05;94876.97;;;6.97;100.00
46638;BME280;32365;46.938;7.390;2022-11-15T08:54:31;94873.38;;;6.98;100.00
46638;BME280;32365;46.938;7.390;2022-11-15T08:56:58;94882.22;;;7.20;100.00
46638;BME280;32365;46.938;7.390;2022-11-15T08:59:24;94875.59;;;7.13;100.00
46638;BME280;32365;46.938;7.390;2022-11-15T09:01:50;94876.28;;;7.20;100.00
46638;BME280;32365;46.938;7.390;2022-11-15T09:04:18;94880.03;;;7.36;100.00
46638;BME280;32365;46.938;7.390;2022-11-15T09:06:44;94869.69;;;7.24;100.00
46638;BME280;32365;46.938;7.390;2022-11-15T09:09:11;94867.63;;;7.45;100.00
46638;BME280;32365;46.938;7.390;2022-11-15T09:11:37;94879.75;;;7.56;100.00
46638;BME280;32365;46.938;7.390;2022-11-15T09:14:03;94869.00;;;7.59;100.00
46638;BME280;32365;46.938;7.390;2022-11-15T09:16:30;94861.59;;;7.51;100.00
46638;BME280;32365;46.938;7.390;2022-11-15T09:18:56;94859.56;;;7.41;100.00
46638;BME280;32365;46.938;7.390;2022-11-15T09:21:24;94869.09;;;7.52;100.00
46638;BME280;32365;46.938;7.390;2022-11-15T09:23:50;94869.38;;;7.75;100.00
46638;BME280;32365;46.938;7.390;2022-11-15T09:26:17;94870.72;;;7.89;100.00
46638;BME280;32365;46.938;7.390;2022-11-15T09:28:44;94872.75;;;7.87;100.00
46638;BME280;32365;46.938;7.390;2022-11-15T09:31:10;94864.00;;;7.76;100.00
46638;BME280;32365;46.938;7.390;2022-11-15T09:33:36;94868.84;;;7.96;100.00
46638;BME280;32365;46.938;7.390;2022-11-15T09:36:03;94871.41;;;7.96;100.00
46638;BME280;32365;46.938;7.390;2022-11-15T09:38:32;94864.25;;;7.98;100.00
46638;BME280;32365;46.938;7.390;2022-11-15T09:41:15;94875.47;;;8.04;100.00
46638;BME280;32365;46.938;7.390;2022-11-15T09:43:46;94869.97;;;8.12;100.00
46638;BME280;32365;46.938;7.390;2022-11-15T09:46:19;94876.69;;;8.25;99.66
46638;BME280;32365;46.938;7.390;2022-11-15T09:48:50;94864.47;;;8.32;98.60
46638;BME280;32365;46.938;7.390;2022-11-15T09:51:21;94842.22;;;8.43;98.98
46638;BME280;32365;46.938;7.390;2022-11-15T09:53:56;94842.25;;;8.55;98.91
46638;BME280;32365;46.938;7.390;2022-11-15T09:56:24;94832.03;;;8.37;97.38
46638;BME280;32365;46.938;7.390;2022-11-15T09:58:53;94828.25;;;8.27;97.30
46638;BME280;32365;46.938;7.390;2022-11-15T10:01:36;94829.25;;;8.26;97.79
46638;BME280;32365;46.938;7.390;2022-11-15T10:04:05;94822.63;;;8.19;98.88
46638;BME280;32365;46.938;7.390;2022-11-15T10:06:31;94829.00;;;8.40;98.40
46638;BME280;32365;46.938;7.390;2022-11-15T10:09:03;94835.28;;;8.56;96.73
46638;BME280;32365;46.938;7.390;2022-11-15T10:11:32;94830.81;;;8.39;96.09
46638;BME280;32365;46.938;7.390;2022-11-15T10:14:01;94829.13;;;8.33;96.81
46638;BME280;32365;46.938;7.390;2022-11-15T10:16:36;94831.16;;;8.43;98.26
46638;BME280;32365;46.938;7.390;2022-11-15T10:19:07;94821.84;;;8.30;97.03
46638;BME280;32365;46.938;7.390;2022-11-15T10:21:38;94819.19;;;8.25;97.84
46638;BME280;32365;46.938;7.390;2022-11-15T10:24:11;94810.28;;;8.44;97.37
46638;BME280;32365;46.938;7.390;2022-11-15T10:26:38;94805.84;;;8.28;97.60
46638;BME280;32365;46.938;7.390;2022-11-15T10:29:04;94811.97;;;8.39;98.01
46638;BME280;32365;46.938;7.390;2022-11-15T10:31:31;94803.25;;;8.28;96.28
46638;BME280;32365;46.938;7.390;2022-11-15T10:33:59;94795.28;;;8.41;96.36
46638;BME280;32365;46.938;7.390;2022-11-15T10:36:36;94797.63;;;8.43;96.93
46638;BME280;32365;46.938;7.390;2022-11-15T10:39:02;94799.09;;;8.51;98.00
46638;BME280;32365;46.938;7.390;2022-11-15T10:41:31;94790.81;;;8.77;97.09
46638;BME280;32365;46.938;7.390;2022-11-15T10:44:07;94784.44;;;8.97;95.62
46638;BME280;32365;46.938;7.390;2022-11-15T10:46:36;94792.22;;;9.14;95.30
46638;BME280;32365;46.938;7.390;2022-11-15T10:49:11;94778.22;;;9.27;94.82
46638;BME280;32365;46.938;7.390;2022-11-15T10:51:40;94779.41;;;9.19;94.53
46638;BME280;32365;46.938;7.390;2022-11-15T10:54:08;94783.22;;;9.17;95.85
46638;BME280;32365;46.938;7.390;2022-11-15T10:56:37;94775.25;;;9.18;94.77
46638;BME280;32365;46.938;7.390;2022-11-15T10:59:05;94767.38;;;9.25;95.11
46638;BME280;32365;46.938;7.390;2022-11-15T11:01:31;94766.56;;;9.24;93.08
46638;BME280;32365;46.938;7.390;2022-11-15T11:04:11;94765.00;;;9.40;89.32
46638;BME280;32365;46.938;7.390;2022-11-15T11:06:45;94760.94;;;9.28;89.43
46638;BME280;32365;46.938;7.390;2022-11-15T11:09:19;94757.56;;;9.27;88.96
46638;BME280;32365;46.938;7.390;2022-11-15T11:11:49;94751.06;;;9.42;87.96
46638;BME280;32365;46.938;7.390;2022-11-15T11:14:19;94754.91;;;9.39;89.83
46638;BME280;32365;46.938;7.390;2022-11-15T11:16:47;94745.28;;;9.51;89.18
46638;BME280;32365;46.938;7.390;2022-11-15T11:21:59;94743.09;;;9.60;87.65
46638;BME280;32365;46.938;7.390;2022-11-15T11:24:30;94740.34;;;9.67;86.68
46638;BME280;32365;46.938;7.390;2022-11-15T11:27:04;94738.28;;;9.69;84.43
46638;BME280;32365;46.938;7.390;2022-11-15T11:29:38;94735.69;;;9.69;84.55
46638;BME280;32365;46.938;7.390;2022-11-15T11:32:10;94729.44;;;9.65;83.31
46638;BME280;32365;46.938;7.390;2022-11-15T11:34:44;94722.25;;;9.89;82.01
46638;BME280;32365;46.938;7.390;2022-11-15T11:37:14;94725.28;;;9.81;82.54
46638;BME280;32365;46.938;7.390;2022-11-15T11:39:45;94724.84;;;9.89;83.38
46638;BME280;32365;46.938;7.390;2022-11-15T11:42:16;94718.25;;;9.98;82.87
46638;BME280;32365;46.938;7.390;2022-11-15T11:44:47;94714.72;;;10.05;81.98
46638;BME280;32365;46.938;7.390;2022-11-15T11:47:19;94707.38;;;10.41;79.38
46638;BME280;32365;46.938;7.390;2022-11-15T11:49:49;94711.81;;;10.23;82.36
46638;BME280;32365;46.938;7.390;2022-11-15T11:52:17;94707.13;;;10.20;82.84
46638;BME280;32365;46.938;7.390;2022-11-15T11:54:47;94703.72;;;10.14;82.02
46638;BME280;32365;46.938;7.390;2022-11-15T11:57:17;94696.28;;;10.23;84.25
46638;BME280;32365;46.938;7.390;2022-11-15T11:59:48;94692.38;;;9.98;84.72
46638;BME280;32365;46.938;7.390;2022-11-15T12:02:18;94681.53;;;9.96;84.63
46638;BME280;32365;46.938;7.390;2022-11-15T12:04:48;94677.19;;;10.02;84.34
46638;BME280;32365;46.938;7.390;2022-11-15T12:07:16;94672.59;;;9.87;86.29
46638;BME280;32365;46.938;7.390;2022-11-15T12:09:46;94670.84;;;9.93;85.60
46638;BME280;32365;46.938;7.390;2022-11-15T12:12:15;94663.41;;;9.96;86.66
46638;BME280;32365;46.938;7.390;2022-11-15T12:14:45;94659.00;;;9.75;86.38
46638;BME280;32365;46.938;7.390;2022-11-15T12:17:14;94666.41;;;9.66;88.53
46638;BME280;32365;46.938;7.390;2022-11-15T12:19:42;94669.19;;;10.04;86.93
46638;BME280;32365;46.938;7.390;2022-11-15T12:22:10;94661.16;;;10.05;87.45
46638;BME280;32365;46.938;7.390;2022-11-15T12:24:39;94649.94;;;9.94;88.69
46638;BME280;32365;46.938;7.390;2022-11-15T12:27:11;94661.97;;;10.28;88.78
46638;BME280;32365;46.938;7.390;2022-11-15T12:29:41;94656.78;;;10.28;88.63
46638;BME280;32365;46.938;7.390;2022-11-15T12:32:14;94646.44;;;10.28;89.66
46638;BME280;32365;46.938;7.390;2022-11-15T12:34:43;94650.38;;;10.58;86.48
46638;BME280;32365;46.938;7.390;2022-11-15T12:45:30;94603.94;;;9.74;91.70
46638;BME280;32365;46.938;7.390;2022-11-15T12:50:55;94604.66;;;10.41;88.10
46638;BME280;32365;46.938;7.390;2022-11-15T12:53:26;94612.66;;;10.67;86.53
46638;BME280;32365;46.938;7.390;2022-11-15T12:56:08;94605.16;;;10.71;87.08
46638;BME280;32365;46.938;7.390;2022-11-15T12:58:41;94612.81;;;10.55;86.34
46638;BME280;32365;46.938;7.390;2022-11-15T13:01:52;94609.44;;;10.55;87.28
46638;BME280;32365;46.938;7.390;2022-11-15T13:04:07;94595.88;;;10.42;89.25
46638;BME280;32365;46.938;7.390;2022-11-15T13:06:36;94589.81;;;10.31;87.26
46638;BME280;32365;46.938;7.390;2022-11-15T13:09:49;94587.66;;;10.23;88.39
46638;BME280;32365;46.938;7.390;2022-11-15T13:11:52;94579.50;;;10.09;88.35
46638;BME280;32365;46.938;7.390;2022-11-15T13:17:20;94591.03;;;10.51;88.65
46638;BME280;32365;46.938;7.390;2022-11-15T13:19:49;94591.28;;;10.50;88.65
46638;BME280;32365;46.938;7.390;2022-11-15T13:22:20;94584.91;;;10.35;88.94
46638;BME280;32365;46.938;7.390;2022-11-15T13:25:14;94573.75;;;10.29;88.82
46638;BME280;32365;46.938;7.390;2022-11-15T13:27:44;94567.41;;;10.15;91.11
46638;BME280;32365;46.938;7.390;2022-11-15T13:30:12;94570.72;;;9.83;89.94
46638;BME280;32365;46.938;7.390;2022-11-15T13:32:40;94572.16;;;9.74;89.77
46638;BME280;32365;46.938;7.390;2022-11-15T13:35:07;94561.88;;;9.79;90.04
46638;BME280;32365;46.938;7.390;2022-11-15T13:37:34;94550.03;;;9.61;92.30
46638;BME280;32365;46.938;7.390;2022-11-15T13:40:15;94530.53;;;9.48;93.38
46638;BME280;32365;46.938;7.390;2022-11-15T13:42:44;94553.34;;;9.78;93.50
46638;BME280;32365;46.938;7.390;2022-11-15T13:45:12;94553.28;;;9.73;92.27
46638;BME280;32365;46.938;7.390;2022-11-15T13:47:39;94536.25;;;9.50;94.06
46638;BME280;32365;46.938;7.390;2022-11-15T13:50:10;94539.13;;;9.53;95.00
46638;BME280;32365;46.938;7.390;2022-11-15T13:52:39;94522.06;;;9.52;95.50
46638;BME280;32365;46.938;7.390;2022-11-15T13:55:09;94509.13;;;9.52;94.79
46638;BME280;32365;46.938;7.390;2022-11-15T13:57:39;94514.59;;;9.56;94.19
46638;BME280;32365;46.938;7.390;2022-11-15T14:00:24;94521.72;;;9.71;94.06
46638;BME280;32365;46.938;7.390;2022-11-15T14:02:50;94511.59;;;9.92;91.78
46638;BME280;32365;46.938;7.390;2022-11-15T14:05:17;94503.41;;;9.73;92.88
46638;BME280;32365;46.938;7.390;2022-11-15T14:07:53;94502.56;;;9.67;93.58
46638;BME280;32365;46.938;7.390;2022-11-15T14:10:24;94508.84;;;9.49;93.99
46638;BME280;32365;46.938;7.390;2022-11-15T14:12:51;94504.84;;;9.63;93.43
46638;BME280;32365;46.938;7.390;2022-11-15T14:15:19;94489.75;;;9.50;94.92
46638;BME280;32365;46.938;7.390;2022-11-15T14:17:50;94492.06;;;9.51;94.29
46638;BME280;32365;46.938;7.390;2022-11-15T14:20:24;94486.47;;;9.60;94.58
46638;BME280;32365;46.938;7.390;2022-11-15T14:22:54;94484.41;;;9.62;93.55
46638;BME280;32365;46.938;7.390;2022-11-15T14:25:21;94490.22;;;9.74;92.71
46638;BME280;32365;46.938;7.390;2022-11-15T14:30:33;94486.63;;;9.75;92.76
46638;BME280;32365;46.938;7.390;2022-11-15T14:32:59;94480.81;;;9.63;93.59
46638;BME280;32365;46.938;7.390;2022-11-15T14:35:25;94474.53;;;9.53;94.83
46638;BME280;32365;46.938;7.390;2022-11-15T14:37:53;94470.59;;;9.51;94.58
46638;BME280;32365;46.938;7.390;2022-11-15T14:40:20;94463.16;;;9.54;94.40
46638;BME280;32365;46.938;7.390;2022-11-15T14:42:48;94462.38;;;9.54;93.78
46638;BME280;32365;46.938;7.390;2022-11-15T14:45:15;94463.91;;;9.50;93.44
46638;BME280;32365;46.938;7.390;2022-11-15T14:47:42;94454.34;;;9.50;94.01
46638;BME280;32365;46.938;7.390;2022-11-15T14:50:11;94459.03;;;9.53;94.13
46638;BME280;32365;46.938;7.390;2022-11-15T14:52:37;94458.50;;;9.57;93.58
46638;BME280;32365;46.938;7.390;2022-11-15T14:55:10;94459.50;;;9.50;93.09
46638;BME280;32365;46.938;7.390;2022-11-15T14:57:39;94458.91;;;9.43;93.16
46638;BME280;32365;46.938;7.390;2022-11-15T15:00:06;94450.56;;;9.36;93.83
46638;BME280;32365;46.938;7.390;2022-11-15T15:02:33;94454.97;;;9.35;94.10
46638;BME280;32365;46.938;7.390;2022-11-15T15:04:59;94455.50;;;9.37;94.00
46638;BME280;32365;46.938;7.390;2022-11-15T15:07:28;94455.88;;;9.24;93.73
46638;BME280;32365;46.938;7.390;2022-11-15T15:09:54;94451.53;;;9.07;94.55
46638;BME280;32365;46.938;7.390;2022-11-15T15:12:22;94440.94;;;9.04;95.05
46638;BME280;32365;46.938;7.390;2022-11-15T15:14:50;94445.25;;;8.98;94.84
46638;BME280;32365;46.938;7.390;2022-11-15T15:17:16;94436.13;;;8.90;94.42
46638;BME280;32365;46.938;7.390;2022-11-15T15:19:43;94430.97;;;8.90;94.94
46638;BME280;32365;46.938;7.390;2022-11-15T15:22:11;94422.63;;;8.83;94.62
46638;BME280;32365;46.938;7.390;2022-11-15T15:24:39;94420.56;;;8.85;92.97
46638;BME280;32365;46.938;7.390;2022-11-15T15:27:05;94416.72;;;8.88;93.51
46638;BME280;32365;46.938;7.390;2022-11-15T15:29:33;94415.66;;;8.84;94.40
46638;BME280;32365;46.938;7.390;2022-11-15T15:31:59;94415.34;;;8.80;95.23
46638;BME280;32365;46.938;7.390;2022-11-15T15:34:25;94421.22;;;8.75;96.28
46638;BME280;32365;46.938;7.390;2022-11-15T15:37:05;94427.63;;;8.73;97.18
46638;BME280;32365;46.938;7.390;2022-11-15T15:39:32;94422.88;;;8.65;98.65
46638;BME280;32365;46.938;7.390;2022-11-15T15:41:58;94422.84;;;8.59;98.65
46638;BME280;32365;46.938;7.390;2022-11-15T15:44:24;94411.47;;;8.60;98.75
46638;BME280;32365;46.938;7.390;2022-11-15T15:46:52;94400.69;;;8.63;98.38
46638;BME280;32365;46.938;7.390;2022-11-15T15:49:18;94409.16;;;8.59;98.11
46638;BME280;32365;46.938;7.390;2022-11-15T15:51:45;94398.53;;;8.55;98.20
46638;BME280;32365;46.938;7.390;2022-11-15T15:54:11;94399.78;;;8.53;98.37
46638;BME280;32365;46.938;7.390;2022-11-15T15:56:37;94394.84;;;8.51;98.64
46638;BME280;32365;46.938;7.390;2022-11-15T15:59:04;94389.59;;;8.63;97.90
46638;BME280;32365;46.938;7.390;2022-11-15T16:01:30;94376.91;;;8.61;98.11
46638;BME280;32365;46.938;7.390;2022-11-15T16:03:58;94371.63;;;8.51;98.68
46638;BME280;32365;46.938;7.390;2022-11-15T16:06:31;94382.91;;;8.45;98.80
46638;BME280;32365;46.938;7.390;2022-11-15T16:08:58;94376.88;;;8.39;99.17
46638;BME280;32365;46.938;7.390;2022-11-15T16:11:25;94374.13;;;8.46;99.42
46638;BME280;32365;46.938;7.390;2022-11-15T16:13:51;94368.28;;;8.51;97.95
46638;BME280;32365;46.938;7.390;2022-11-15T16:16:17;94363.16;;;8.34;99.44
46638;BME280;32365;46.938;7.390;2022-11-15T16:18:45;94361.75;;;8.26;99.69
46638;BME280;32365;46.938;7.390;2022-11-15T16:21:13;94358.94;;;8.27;100.00
46638;BME280;32365;46.938;7.390;2022-11-15T16:23:39;94357.38;;;8.26;100.00
46638;BME280;32365;46.938;7.390;2022-11-15T16:26:09;94353.38;;;8.19;100.00
46638;BME280;32365;46.938;7.390;2022-11-15T16:28:40;94349.97;;;8.13;100.00
46638;BME280;32365;46.938;7.390;2022-11-15T16:31:07;94347.88;;;8.10;100.00
46638;BME280;32365;46.938;7.390;2022-11-15T16:33:35;94338.81;;;8.07;100.00
46638;BME280;32365;46.938;7.390;2022-11-15T16:36:02;94343.66;;;8.04;100.00
46638;BME280;32365;46.938;7.390;2022-11-15T16:38:30;94348.25;;;8.01;100.00
46638;BME280;32365;46.938;7.390;2022-11-15T16:40:56;94343.91;;;8.02;100.00
46638;BME280;32365;46.938;7.390;2022-11-15T16:43:23;94343.91;;;8.02;100.00
46638;BME280;32365;46.938;7.390;2022-11-15T16:45:49;94335.06;;;7.98;100.00
46638;BME280;32365;46.938;7.390;2022-11-15T16:48:19;94335.31;;;7.96;100.00
46638;BME280;32365;46.938;7.390;2022-11-15T16:50:46;94331.19;;;7.95;100.00
46638;BME280;32365;46.938;7.390;2022-11-15T16:53:13;94328.50;;;7.90;100.00
46638;BME280;32365;46.938;7.390;2022-11-15T16:55:40;94314.06;;;7.89;100.00
46638;BME280;32365;46.938;7.390;2022-11-15T16:58:07;94322.03;;;7.88;100.00
46638;BME280;32365;46.938;7.390;2022-11-15T17:00:34;94314.31;;;7.88;100.00
46638;BME280;32365;46.938;7.390;2022-11-15T17:03:01;94317.34;;;7.84;100.00
46638;BME280;32365;46.938;7.390;2022-11-15T17:05:27;94324.31;;;7.84;100.00
46638;BME280;32365;46.938;7.390;2022-11-15T17:07:54;94315.03;;;7.83;100.00
46638;BME280;32365;46.938;7.390;2022-11-15T17:10:21;94307.28;;;7.83;100.00
46638;BME280;32365;46.938;7.390;2022-11-15T17:12:49;94303.63;;;7.79;100.00
46638;BME280;32365;46.938;7.390;2022-11-15T17:15:15;94302.84;;;7.78;100.00
46638;BME280;32365;46.938;7.390;2022-11-15T17:17:42;94307.22;;;7.78;100.00
46638;BME280;32365;46.938;7.390;2022-11-15T17:20:12;94304.56;;;7.73;100.00
46638;BME280;32365;46.938;7.390;2022-11-15T17:22:39;94303.56;;;7.74;100.00
46638;BME280;32365;46.938;7.390;2022-11-15T17:25:06;94304.34;;;7.74;100.00
46638;BME280;32365;46.938;7.390;2022-11-15T17:27:32;94300.75;;;7.75;100.00
46638;BME280;32365;46.938;7.390;2022-11-15T17:30:00;94296.84;;;7.73;100.00
46638;BME280;32365;46.938;7.390;2022-11-15T17:32:26;94294.72;;;7.69;100.00
46638;BME280;32365;46.938;7.390;2022-11-15T17:34:53;94291.19;;;7.93;100.00
46638;BME280;32365;46.938;7.390;2022-11-15T17:37:19;94289.72;;;8.19;100.00
46638;BME280;32365;46.938;7.390;2022-11-15T17:39:45;94294.63;;;8.21;100.00
46638;BME280;32365;46.938;7.390;2022-11-15T17:42:12;94283.56;;;8.20;100.00
46638;BME280;32365;46.938;7.390;2022-11-15T17:44:38;94287.66;;;7.99;100.00
46638;BME280;32365;46.938;7.390;2022-11-15T17:47:06;94288.53;;;7.88;100.00
46638;BME280;32365;46.938;7.390;2022-11-15T17:49:32;94283.81;;;7.79;100.00
46638;BME280;32365;46.938;7.390;2022-11-15T17:52:03;94285.28;;;7.75;100.00
46638;BME280;32365;46.938;7.390;2022-11-15T17:54:29;94292.72;;;7.72;100.00
46638;BME280;32365;46.938;7.390;2022-11-15T17:56:56;94294.97;;;7.68;100.00
46638;BME280;32365;46.938;7.390;2022-11-15T17:59:22;94283.56;;;7.64;100.00
46638;BME280;32365;46.938;7.390;2022-11-15T18:01:48;94278.19;;;7.65;100.00
46638;BME280;32365;46.938;7.390;2022-11-15T18:04:16;94282.53;;;7.82;100.00
46638;BME280;32365;46.938;7.390;2022-11-15T18:06:42;94279.81;;;7.72;100.00
46638;BME280;32365;46.938;7.390;2022-11-15T18:09:09;94273.97;;;7.59;100.00
46638;BME280;32365;46.938;7.390;2022-11-15T18:11:36;94278.03;;;7.72;100.00
46638;BME280;32365;46.938;7.390;2022-11-15T18:14:05;94275.13;;;7.68;100.00
46638;BME280;32365;46.938;7.390;2022-11-15T18:16:32;94280.75;;;7.65;100.00
46638;BME280;32365;46.938;7.390;2022-11-15T18:18:59;94280.75;;;7.65;100.00
46638;BME280;32365;46.938;7.390;2022-11-15T18:21:28;94282.31;;;7.66;100.00
46638;BME280;32365;46.938;7.390;2022-11-15T18:23:55;94281.09;;;7.69;100.00
46638;BME280;32365;46.938;7.390;2022-11-15T18:26:22;94287.25;;;7.68;100.00
46638;BME280;32365;46.938;7.390;2022-11-15T18:28:51;94284.44;;;7.69;100.00
46638;BME280;32365;46.938;7.390;2022-11-15T18:31:19;94281.84;;;7.69;100.00
46638;BME280;32365;46.938;7.390;2022-11-15T18:33:46;94279.88;;;7.77;100.00
46638;BME280;32365;46.938;7.390;2022-11-15T18:36:14;94273.97;;;7.76;100.00
46638;BME280;32365;46.938;7.390;2022-11-15T18:38:42;94281.69;;;7.76;100.00
46638;BME280;32365;46.938;7.390;2022-11-15T18:41:09;94267.50;;;7.74;100.00
46638;BME280;32365;46.938;7.390;2022-11-15T18:43:35;94268.22;;;7.69;100.00
46638;BME280;32365;46.938;7.390;2022-11-15T18:46:02;94273.28;;;7.64;100.00
46638;BME280;32365;46.938;7.390;2022-11-15T18:48:29;94262.41;;;7.62;100.00
46638;BME280;32365;46.938;7.390;2022-11-15T18:50:58;94265.25;;;7.60;100.00
46638;BME280;32365;46.938;7.390;2022-11-15T18:53:25;94253.38;;;7.59;100.00
46638;BME280;32365;46.938;7.390;2022-11-15T18:55:53;94245.09;;;7.57;100.00
46638;BME280;32365;46.938;7.390;2022-11-15T18:58:21;94247.38;;;7.53;100.00
46638;BME280;32365;46.938;7.390;2022-11-15T19:00:47;94240.41;;;7.54;100.00
46638;BME280;32365;46.938;7.390;2022-11-15T19:03:14;94245.56;;;7.54;100.00
46638;BME280;32365;46.938;7.390;2022-11-15T19:05:40;94244.00;;;7.53;100.00
46638;BME280;32365;46.938;7.390;2022-11-15T19:08:07;94234.72;;;7.52;100.00
46638;BME280;32365;46.938;7.390;2022-11-15T19:10:33;94234.72;;;7.52;100.00
46638;BME280;32365;46.938;7.390;2022-11-15T19:13:01;94230.38;;;7.52;100.00
46638;BME280;32365;46.938;7.390;2022-11-15T19:15:27;94237.06;;;7.53;100.00
46638;BME280;32365;46.938;7.390;2022-11-15T19:17:54;94238.84;;;7.53;100.00
46638;BME280;32365;46.938;7.390;2022-11-15T19:20:20;94226.53;;;7.55;100.00
46638;BME280;32365;46.938;7.390;2022-11-15T19:22:46;94231.94;;;7.53;100.00
46638;BME280;32365;46.938;7.390;2022-11-15T19:25:13;94230.91;;;7.54;100.00
46638;BME280;32365;46.938;7.390;2022-11-15T19:27:39;94240.66;;;7.52;100.00
46638;BME280;32365;46.938;7.390;2022-11-15T19:30:08;94238.34;;;7.51;100.00
46638;BME280;32365;46.938;7.390;2022-11-15T19:32:34;94239.91;;;7.74;100.00
46638;BME280;32365;46.938;7.390;2022-11-15T19:35:00;94228.19;;;7.83;100.00
46638;BME280;32365;46.938;7.390;2022-11-15T19:37:27;94229.16;;;7.77;100.00
46638;BME280;32365;46.938;7.390;2022-11-15T19:39:53;94225.56;;;7.78;100.00
46638;BME280;32365;46.938;7.390;2022-11-15T19:42:20;94220.63;;;7.77;100.00
46638;BME280;32365;46.938;7.390;2022-11-15T19:44:46;94214.78;;;7.81;100.00
46638;BME280;32365;46.938;7.390;2022-11-15T19:47:14;94227.00;;;7.69;100.00
46638;BME280;32365;46.938;7.390;2022-11-15T19:49:40;94226.34;;;7.62;100.00
46638;BME280;32365;46.938;7.390;2022-11-15T19:52:07;94221.69;;;7.59;100.00
46638;BME280;32365;46.938;7.390;2022-11-15T19:54:33;94211.88;;;7.55;100.00
46638;BME280;32365;46.938;7.390;2022-11-15T19:57:00;94222.16;;;7.55;100.00
46638;BME280;32365;46.938;7.390;2022-11-15T19:59:26;94224.41;;;7.52;100.00
46638;BME280;32365;46.938;7.390;2022-11-15T20:01:52;94225.69;;;7.49;100.00
46638;BME280;32365;46.938;7.390;2022-11-15T20:04:20;94222.56;;;7.47;100.00
46638;BME280;32365;46.938;7.390;2022-11-15T20:06:46;94234.91;;;7.45;100.00
46638;BME280;32365;46.938;7.390;2022-11-15T20:09:13;94222.25;;;7.44;100.00
46638;BME280;32365;46.938;7.390;2022-11-15T20:11:40;94231.94;;;7.36;100.00
46638;BME280;32365;46.938;7.390;2022-11-15T20:14:07;94229.38;;;7.36;100.00
46638;BME280;32365;46.938;7.390;2022-11-15T20:16:35;94227.88;;;7.40;100.00
46638;BME280;32365;46.938;7.390;2022-11-15T20:19:02;94225.78;;;7.37;100.00
46638;BME280;32365;46.938;7.390;2022-11-15T20:21:29;94231.16;;;7.36;100.00
46638;BME280;32365;46.938;7.390;2022-11-15T20:23:56;94235.06;;;7.38;100.00
46638;BME280;32365;46.938;7.390;2022-11-15T20:26:22;94231.22;;;7.41;100.00
